createdAt,value
2022-09-12T00:01:30.330Z,1.23
2022-09-12T00:04:16.782Z,1.23
2022-09-12T00:06:45.090Z,1.40
2022-09-12T00:09:14.919Z,1.25
2022-09-12T00:11:45.826Z,1.33
2022-09-12T00:14:17.213Z,1.73
2022-09-12T00:16:45.603Z,1.10
2022-09-12T00:19:13.947Z,1.30
2022-09-12T00:21:42.682Z,1.38
2022-09-12T00:24:11.661Z,1.30
2022-09-12T00:26:40.154Z,1.40
2022-09-12T00:29:08.303Z,1.30
2022-09-12T00:31:36.937Z,1.25
2022-09-12T00:34:05.072Z,1.65
2022-09-12T00:36:33.472Z,1.15
2022-09-12T00:39:01.718Z,1.20
2022-09-12T00:41:35.356Z,1.20
2022-09-12T00:44:40.736Z,1.30
2022-09-12T00:47:22.777Z,1.33
2022-09-12T00:50:09.952Z,1.30
2022-09-12T00:52:47.608Z,1.20
2022-09-12T00:55:25.705Z,1.38
2022-09-12T00:57:58.878Z,1.00
2022-09-12T01:00:28.899Z,1.42
2022-09-12T01:03:11.689Z,1.08
2022-09-12T01:06:17.241Z,1.50
2022-09-12T01:08:47.825Z,0.90
2022-09-12T01:11:17.250Z,1.40
2022-09-12T01:13:46.090Z,1.10
2022-09-12T01:16:14.282Z,1.10
2022-09-12T01:19:25.835Z,1.15
2022-09-12T01:22:42.674Z,1.25
2022-09-12T01:25:34.155Z,1.73
2022-09-12T01:28:27.254Z,1.30
2022-09-12T01:31:08.584Z,1.20
2022-09-12T01:33:50.648Z,1.33
2022-09-12T01:36:19.191Z,1.20
2022-09-12T01:38:50.567Z,1.10
2022-09-12T01:41:48.965Z,0.90
2022-09-12T01:44:38.596Z,1.45
2022-09-12T01:47:44.639Z,1.10
2022-09-12T01:53:15.345Z,0.93
2022-09-12T01:59:08.884Z,1.52
2022-09-12T02:01:50.437Z,1.30
2022-09-12T02:04:36.334Z,1.05
2022-09-12T02:07:15.350Z,1.20
2022-09-12T02:09:55.041Z,1.10
2022-09-12T02:12:29.962Z,1.42
2022-09-12T02:15:03.522Z,0.98
2022-09-12T02:17:38.840Z,1.20
2022-09-12T02:20:31.028Z,1.10
2022-09-12T02:23:09.141Z,1.13
2022-09-12T02:25:43.633Z,1.60
2022-09-12T02:28:35.610Z,1.05
2022-09-12T02:31:06.677Z,1.70
2022-09-12T02:33:41.850Z,1.23
2022-09-12T02:36:54.993Z,1.27
2022-09-12T02:39:23.203Z,1.45
2022-09-12T02:41:53.215Z,1.60
2022-09-12T02:44:21.596Z,1.17
2022-09-12T02:47:15.634Z,1.42
2022-09-12T02:49:43.930Z,1.40
2022-09-12T02:52:12.469Z,1.45
2022-09-12T02:54:40.949Z,1.20
2022-09-12T02:57:22.824Z,1.27
2022-09-12T02:59:59.791Z,1.40
2022-09-12T03:02:54.326Z,0.98
2022-09-12T03:05:28.299Z,1.15
2022-09-12T03:08:17.719Z,1.27
2022-09-12T03:11:50.094Z,1.20
2022-09-12T03:14:53.158Z,1.73
2022-09-12T03:21:14.128Z,0.90
2022-09-12T03:24:09.739Z,1.27
2022-09-12T03:26:47.040Z,1.10
2022-09-12T03:29:16.554Z,1.33
2022-09-12T03:34:40.092Z,1.63
2022-09-12T03:37:08.288Z,1.15
2022-09-12T03:42:21.595Z,1.10
2022-09-12T03:44:49.659Z,1.20
2022-09-12T03:47:17.731Z,1.13
2022-09-12T03:50:05.574Z,1.00
2022-09-12T03:52:34.101Z,1.00
2022-09-12T03:55:02.302Z,1.10
2022-09-12T03:57:30.401Z,1.25
2022-09-12T04:05:29.911Z,1.30
2022-09-12T04:07:58.036Z,1.42
2022-09-12T04:10:44.750Z,1.25
2022-09-12T04:13:12.953Z,1.20
2022-09-12T04:15:41.075Z,1.27
2022-09-12T04:18:47.019Z,1.20
2022-09-12T04:21:34.074Z,1.30
2022-09-12T04:24:02.353Z,1.38
2022-09-12T04:26:31.970Z,1.25
2022-09-12T04:29:00.100Z,1.17
2022-09-12T04:31:46.622Z,1.25
2022-09-12T04:34:15.892Z,1.20
2022-09-12T04:36:44.040Z,1.10
2022-09-12T04:39:12.485Z,1.13
2022-09-12T04:41:44.552Z,1.45
2022-09-12T04:44:14.590Z,1.50
2022-09-12T04:46:46.277Z,1.50
2022-09-12T04:49:16.663Z,1.52
2022-09-12T04:51:45.511Z,1.48
2022-09-12T04:54:16.682Z,1.40
2022-09-12T04:56:47.213Z,2.45
2022-09-12T04:59:17.534Z,2.13
2022-09-12T05:01:45.859Z,2.05
2022-09-12T05:04:14.211Z,1.40
2022-09-12T05:07:01.088Z,1.63
2022-09-12T05:09:29.488Z,1.88
2022-09-12T05:12:04.288Z,1.65
2022-09-12T05:14:33.306Z,1.88
2022-09-12T05:17:02.137Z,1.70
2022-09-12T05:19:31.231Z,1.70
2022-09-12T05:21:59.582Z,1.70
2022-09-12T05:24:27.861Z,1.85
2022-09-12T05:26:55.828Z,1.75
2022-09-12T05:29:25.409Z,1.80
2022-09-12T05:31:53.500Z,1.65
2022-09-12T05:34:22.114Z,1.27
2022-09-12T05:36:50.345Z,1.52
2022-09-12T05:39:18.904Z,1.45
2022-09-12T05:41:47.550Z,1.17
2022-09-12T05:44:15.778Z,1.20
2022-09-12T05:46:45.897Z,1.40
2022-09-12T05:49:14.815Z,1.20
2022-09-12T05:51:45.234Z,1.00
2022-09-12T05:54:32.117Z,1.60
2022-09-12T05:57:00.424Z,1.40
2022-09-12T05:59:28.760Z,1.00
2022-09-12T06:01:56.869Z,1.05
2022-09-12T06:04:25.761Z,1.55
2022-09-12T06:06:53.820Z,1.27
2022-09-12T06:09:40.458Z,1.52
2022-09-12T06:12:08.937Z,1.20
2022-09-12T06:14:36.911Z,1.13
2022-09-12T06:17:05.673Z,1.27
2022-09-12T06:19:33.931Z,1.23
2022-09-12T06:22:01.960Z,1.40
2022-09-12T06:24:30.065Z,1.25
2022-09-12T06:26:58.058Z,1.05
2022-09-12T06:29:26.162Z,1.30
2022-09-12T06:31:54.176Z,1.50
2022-09-12T06:34:22.159Z,0.95
2022-09-12T06:36:50.612Z,1.10
2022-09-12T06:39:21.241Z,1.08
2022-09-12T06:42:11.587Z,1.38
2022-09-12T06:44:39.724Z,1.00
2022-09-12T06:47:07.987Z,1.50
2022-09-12T06:49:36.013Z,1.10
2022-09-12T06:52:04.102Z,1.50
2022-09-12T06:54:32.093Z,1.00
2022-09-12T06:57:00.107Z,1.45
2022-09-12T06:59:28.089Z,1.17
2022-09-12T07:01:56.890Z,2.25
2022-09-12T07:04:24.996Z,1.40
2022-09-12T07:06:52.973Z,1.33
2022-09-12T07:09:20.977Z,1.70
2022-09-12T07:11:48.947Z,1.45
2022-09-12T07:14:17.179Z,1.38
2022-09-12T07:17:04.021Z,1.23
2022-09-12T07:19:32.054Z,1.00
2022-09-12T07:22:00.016Z,1.00
2022-09-12T07:24:28.048Z,1.48
2022-09-12T07:26:56.428Z,1.60
2022-09-12T07:29:39.800Z,1.52
2022-09-12T07:32:07.932Z,1.52
2022-09-12T07:34:36.317Z,1.15
2022-09-12T07:37:04.819Z,1.40
2022-09-12T07:39:32.820Z,2.10
2022-09-12T07:42:00.864Z,2.28
2022-09-12T07:44:29.730Z,1.30
2022-09-12T07:46:57.810Z,1.33
2022-09-12T07:49:25.917Z,1.60
2022-09-12T07:51:54.710Z,1.67
2022-09-12T07:54:23.212Z,1.65
2022-09-12T07:56:51.174Z,1.45
2022-09-12T07:59:41.522Z,1.83
2022-09-12T08:02:14.642Z,1.27
2022-09-12T08:04:44.815Z,1.80
2022-09-12T08:07:13.205Z,1.77
2022-09-12T08:09:41.338Z,1.25
2022-09-12T08:12:09.304Z,1.13
2022-09-12T08:14:37.375Z,1.50
2022-09-12T08:17:05.797Z,1.60
2022-09-12T08:19:33.920Z,1.90
2022-09-12T08:22:02.407Z,1.50
2022-09-12T08:24:30.489Z,1.50
2022-09-12T08:26:58.469Z,1.77
2022-09-12T08:29:26.465Z,1.40
2022-09-12T08:31:57.303Z,1.08
2022-09-12T08:34:26.389Z,1.15
2022-09-12T08:36:54.890Z,1.00
2022-09-12T08:39:23.186Z,1.00
2022-09-12T08:42:03.828Z,1.10
2022-09-12T08:45:01.263Z,1.20
2022-09-12T08:47:39.036Z,1.38
2022-09-12T08:50:10.278Z,1.17
2022-09-12T08:55:59.454Z,1.10
2022-09-12T08:58:29.425Z,1.33
2022-09-12T09:01:11.490Z,1.00
2022-09-12T09:03:53.440Z,1.27
2022-09-12T09:06:40.108Z,1.40
2022-09-12T09:09:37.588Z,1.75
2022-09-12T09:12:29.862Z,1.48
2022-09-12T09:15:12.955Z,1.40
2022-09-12T09:20:55.150Z,1.15
2022-09-12T09:23:28.693Z,1.75
2022-09-12T09:26:14.948Z,1.40
2022-09-12T09:28:50.312Z,0.90
2022-09-12T09:31:23.907Z,1.45
2022-09-12T09:33:57.223Z,0.95
2022-09-12T09:36:52.080Z,0.80
2022-09-12T09:39:57.735Z,0.82
2022-09-12T09:42:33.594Z,1.00
2022-09-12T09:45:11.594Z,0.77
2022-09-12T09:47:39.666Z,1.33
2022-09-12T09:50:12.885Z,1.13
2022-09-12T09:52:41.475Z,1.20
2022-09-12T09:55:18.546Z,0.98
2022-09-12T09:57:47.736Z,1.30
2022-09-12T10:00:42.033Z,1.63
2022-09-12T10:03:13.470Z,1.50
2022-09-12T10:05:45.384Z,1.83
2022-09-12T10:11:17.397Z,1.40
2022-09-12T10:13:53.842Z,1.60
2022-09-12T10:16:31.206Z,1.60
2022-09-12T10:24:29.106Z,0.98
2022-09-12T10:30:16.337Z,1.10
2022-09-12T10:32:53.550Z,1.45
2022-09-12T10:35:42.780Z,1.60
2022-09-12T10:38:32.806Z,1.67
2022-09-12T10:41:05.764Z,1.20
2022-09-12T10:43:33.858Z,1.98
2022-09-12T10:46:20.070Z,1.55
2022-09-12T10:48:53.457Z,1.20
2022-09-12T10:51:24.196Z,1.52
2022-09-12T10:54:01.235Z,0.90
2022-09-12T10:56:42.384Z,0.75
2022-09-12T10:59:51.607Z,0.95
2022-09-12T11:02:29.449Z,0.90
2022-09-12T11:05:22.895Z,0.60
2022-09-12T11:08:14.974Z,0.60
2022-09-12T11:11:13.990Z,0.50
2022-09-12T11:13:48.175Z,0.60
2022-09-12T11:16:43.312Z,0.50
2022-09-12T11:19:14.276Z,0.60
2022-09-12T11:25:05.901Z,1.15
2022-09-12T11:31:27.301Z,1.10
2022-09-12T11:33:57.876Z,1.85
2022-09-12T11:36:40.960Z,1.20
2022-09-12T11:39:44.935Z,1.27
2022-09-12T11:42:35.716Z,1.38
2022-09-12T11:45:28.851Z,0.90
2022-09-12T11:48:04.619Z,1.13
2022-09-12T11:50:33.001Z,1.00
2022-09-12T11:53:26.963Z,1.40
2022-09-12T11:56:18.000Z,1.20
2022-09-12T11:59:14.481Z,0.95
2022-09-12T12:01:48.596Z,1.10
2022-09-12T12:04:21.136Z,0.70
2022-09-12T12:07:10.973Z,0.82
2022-09-12T12:09:51.413Z,1.25
2022-09-12T12:12:27.726Z,0.90
2022-09-12T12:14:58.188Z,0.82
2022-09-12T12:17:27.542Z,0.88
2022-09-12T12:20:07.455Z,1.10
2022-09-12T12:22:36.833Z,1.10
2022-09-12T12:25:06.694Z,0.98
2022-09-12T12:27:55.353Z,1.00
2022-09-12T12:30:33.756Z,1.00
2022-09-12T12:33:23.044Z,0.80
2022-09-12T12:36:00.343Z,0.85
2022-09-12T12:38:30.192Z,1.10
2022-09-12T12:41:16.822Z,1.15
2022-09-12T12:43:47.946Z,1.13
2022-09-12T12:46:18.251Z,1.00
2022-09-12T12:49:08.437Z,2.10
2022-09-12T12:51:40.757Z,9.20
2022-09-12T12:54:33.697Z,5.68
2022-09-12T12:57:40.926Z,2.85
2022-09-12T13:00:33.239Z,1.25
2022-09-12T13:03:01.500Z,1.50
2022-09-12T13:05:39.325Z,1.60
2022-09-12T13:08:18.973Z,1.35
2022-09-12T13:10:58.250Z,1.42
2022-09-12T13:13:32.532Z,1.40
2022-09-12T13:16:00.768Z,1.25
2022-09-12T13:18:39.152Z,1.00
2022-09-12T13:21:26.046Z,1.10
2022-09-12T13:24:06.401Z,1.02
2022-09-12T13:26:40.641Z,1.27
2022-09-12T13:29:20.293Z,1.27
2022-09-12T13:32:01.149Z,1.13
2022-09-12T13:34:54.283Z,1.27
2022-09-12T13:37:48.643Z,1.20
2022-09-12T13:40:39.465Z,1.77
2022-09-12T13:43:17.777Z,1.63
2022-09-12T13:45:47.800Z,1.30
2022-09-12T13:48:22.329Z,1.23
2022-09-12T13:50:58.275Z,1.15
2022-09-12T13:53:48.265Z,1.42
2022-09-12T13:56:46.825Z,1.00
2022-09-12T13:59:15.002Z,1.40
2022-09-12T14:01:45.829Z,1.50
2022-09-12T14:07:20.453Z,1.23
2022-09-12T14:10:00.210Z,1.67
2022-09-12T14:12:40.565Z,1.33
2022-09-12T14:15:22.544Z,1.08
2022-09-12T14:17:53.018Z,2.33
2022-09-12T14:20:23.540Z,1.42
2022-09-12T14:22:52.687Z,1.15
2022-09-12T14:25:25.771Z,1.85
2022-09-12T14:27:56.144Z,1.77
2022-09-12T14:30:26.359Z,1.50
2022-09-12T14:33:13.057Z,1.48
2022-09-12T14:35:44.964Z,1.60
2022-09-12T14:38:15.623Z,1.67
2022-09-12T14:40:53.319Z,1.67
2022-09-12T14:43:28.910Z,1.75
2022-09-12T14:46:01.128Z,1.92
2022-09-12T14:48:55.286Z,1.50
2022-09-12T14:51:32.706Z,1.67
2022-09-12T14:54:01.000Z,1.35
2022-09-12T14:56:42.362Z,1.45
2022-09-12T14:59:35.480Z,1.05
2022-09-12T15:02:22.461Z,1.23
2022-09-12T15:05:14.662Z,1.63
2022-09-12T15:07:49.155Z,0.95
2022-09-12T15:10:35.824Z,2.03
2022-09-12T15:13:15.778Z,1.27
2022-09-12T15:15:58.682Z,1.58
2022-09-12T15:18:29.251Z,1.50
2022-09-12T15:21:03.885Z,1.35
2022-09-12T15:23:33.627Z,1.92
2022-09-12T15:26:02.148Z,1.60
2022-09-12T15:28:31.476Z,1.88
2022-09-12T15:34:01.324Z,2.10
2022-09-12T15:36:29.910Z,1.65
2022-09-12T15:38:58.877Z,1.70
2022-09-12T15:41:32.687Z,2.00
2022-09-12T15:44:01.445Z,2.03
2022-09-12T15:46:30.130Z,1.35
2022-09-12T15:48:58.271Z,1.50
2022-09-12T15:51:26.378Z,2.67
2022-09-12T15:53:54.602Z,1.77
2022-09-12T15:56:23.249Z,1.70
2022-09-12T15:58:59.820Z,2.03
2022-09-12T16:01:29.571Z,2.00
2022-09-12T16:03:58.076Z,2.50
2022-09-12T16:06:26.239Z,1.92
2022-09-12T16:08:54.178Z,2.05
2022-09-12T16:11:27.113Z,2.42
2022-09-12T16:13:57.103Z,2.53
2022-09-12T16:16:25.207Z,1.98
2022-09-12T16:18:53.317Z,2.08
2022-09-12T16:21:21.712Z,2.42
2022-09-12T16:23:50.844Z,1.73
2022-09-12T16:26:19.269Z,2.00
2022-09-12T16:28:47.404Z,2.15
2022-09-12T16:31:15.547Z,1.92
2022-09-12T16:33:43.733Z,2.05
2022-09-12T16:36:15.120Z,2.28
2022-09-12T16:38:44.758Z,1.67
2022-09-12T16:41:14.477Z,1.90
2022-09-12T16:43:43.315Z,2.20
2022-09-12T16:46:14.309Z,1.75
2022-09-12T16:48:51.821Z,1.58
2022-09-12T16:51:24.088Z,2.00
2022-09-12T16:56:20.026Z,2.30
2022-09-12T16:58:49.020Z,1.60
2022-09-12T17:01:22.680Z,1.60
2022-09-12T17:03:58.652Z,2.13
2022-09-12T17:06:27.206Z,1.60
2022-09-12T17:08:58.462Z,2.83
2022-09-12T17:11:31.068Z,1.92
2022-09-12T17:14:04.882Z,1.63
2022-09-12T17:16:39.830Z,1.98
2022-09-12T17:19:08.905Z,1.85
2022-09-12T17:21:36.926Z,1.95
2022-09-12T17:24:05.077Z,1.38
2022-09-12T17:26:33.400Z,1.63
2022-09-12T17:29:01.911Z,2.00
2022-09-12T17:31:30.043Z,1.63
2022-09-12T17:33:58.856Z,2.20
2022-09-12T17:36:28.076Z,1.98
2022-09-12T17:38:56.194Z,2.35
2022-09-12T17:41:27.611Z,1.70
2022-09-12T17:43:57.534Z,1.85
2022-09-12T17:46:31.497Z,1.42
2022-09-12T17:49:01.196Z,1.70
2022-09-12T17:51:31.377Z,1.40
2022-09-12T17:54:01.432Z,1.50
2022-09-12T17:56:32.034Z,1.75
2022-09-12T17:59:00.645Z,1.75
2022-09-12T18:01:48.589Z,1.50
2022-09-12T18:04:17.553Z,1.70
2022-09-12T18:06:49.115Z,2.25
2022-09-12T18:09:19.823Z,1.98
2022-09-12T18:11:49.170Z,1.70
2022-09-12T18:14:17.708Z,1.63
2022-09-12T18:16:46.568Z,2.08
2022-09-12T18:19:33.534Z,1.33
2022-09-12T18:22:02.735Z,1.83
2022-09-12T18:24:30.791Z,2.30
2022-09-12T18:26:59.066Z,1.55
2022-09-12T18:29:28.249Z,2.63
2022-09-12T18:31:56.471Z,2.40
2022-09-12T18:34:24.452Z,1.80
2022-09-12T18:36:55.083Z,1.65
2022-09-12T18:39:27.455Z,1.90
2022-09-12T18:41:56.079Z,2.00
2022-09-12T18:44:24.235Z,2.80
2022-09-12T18:46:52.595Z,2.63
2022-09-12T18:49:20.748Z,1.88
2022-09-12T18:51:48.817Z,2.00
2022-09-12T18:54:18.062Z,1.73
2022-09-12T18:56:46.171Z,2.17
2022-09-12T18:59:15.182Z,1.77
2022-09-12T19:04:28.566Z,1.80
2022-09-12T19:06:56.525Z,2.30
2022-09-12T19:09:24.758Z,1.73
2022-09-12T19:11:52.904Z,2.45
2022-09-12T19:14:23.230Z,2.22
2022-09-12T19:16:52.415Z,1.80
2022-09-12T19:19:21.528Z,1.98
2022-09-12T19:21:49.734Z,1.80
2022-09-12T19:24:17.767Z,2.03
2022-09-12T19:26:45.934Z,1.60
2022-09-12T19:29:15.055Z,2.60
2022-09-12T19:32:02.179Z,2.03
2022-09-12T19:34:30.186Z,1.88
2022-09-12T19:36:59.610Z,1.85
2022-09-12T19:39:27.655Z,1.83
2022-09-12T19:41:55.600Z,2.03
2022-09-12T19:44:27.273Z,2.03
2022-09-12T19:46:55.327Z,1.83
2022-09-12T19:49:23.351Z,1.95
2022-09-12T19:51:51.460Z,2.33
2022-09-12T19:54:19.489Z,1.75
2022-09-12T19:56:47.509Z,1.60
2022-09-12T19:59:15.438Z,2.08
2022-09-12T20:01:43.446Z,2.65
2022-09-12T20:04:11.508Z,2.45
2022-09-12T20:06:39.419Z,2.17
2022-09-12T20:09:07.403Z,2.08
2022-09-12T20:11:35.697Z,2.10
2022-09-12T20:14:06.059Z,1.95
2022-09-12T20:16:34.077Z,1.73
2022-09-12T20:19:20.722Z,1.63
2022-09-12T20:22:07.260Z,1.80
2022-09-12T20:24:35.257Z,2.13
2022-09-12T20:27:03.271Z,1.98
2022-09-12T20:29:31.254Z,1.85
2022-09-12T20:31:59.243Z,2.20
2022-09-12T20:34:27.319Z,2.10
2022-09-12T20:36:55.412Z,2.00
2022-09-12T20:39:23.669Z,2.15
2022-09-12T20:41:52.134Z,4.20
2022-09-12T20:44:20.430Z,1.77
2022-09-12T20:46:48.513Z,2.08
2022-09-12T20:49:16.556Z,2.00
2022-09-12T20:51:44.696Z,2.00
2022-09-12T20:54:12.918Z,1.58
2022-09-12T20:56:40.872Z,2.75
2022-09-12T20:59:12.290Z,2.53
2022-09-12T21:01:40.426Z,2.08
2022-09-12T21:04:10.784Z,2.05
2022-09-12T21:06:42.570Z,1.83
2022-09-12T21:09:10.513Z,1.70
2022-09-12T21:11:57.716Z,1.67
2022-09-12T21:14:25.744Z,1.67
2022-09-12T21:16:53.822Z,1.90
2022-09-12T21:19:21.982Z,1.95
2022-09-12T21:21:50.160Z,1.40
2022-09-12T21:24:18.474Z,1.60
2022-09-12T21:26:46.757Z,2.10
2022-09-12T21:29:33.434Z,1.70
2022-09-12T21:34:47.321Z,1.92
2022-09-12T21:37:15.801Z,2.28
2022-09-12T21:40:02.471Z,1.65
2022-09-12T21:42:30.644Z,2.55
2022-09-12T21:44:58.926Z,1.70
2022-09-12T21:47:27.023Z,1.80
2022-09-12T21:50:13.857Z,2.03
2022-09-12T21:52:42.073Z,2.30
2022-09-12T21:55:28.674Z,2.70
2022-09-12T21:57:56.914Z,2.15
2022-09-12T22:00:25.185Z,2.13
2022-09-12T22:02:54.073Z,2.80
2022-09-12T22:05:24.929Z,2.00
2022-09-12T22:07:53.141Z,2.03
2022-09-12T22:10:21.187Z,2.10
2022-09-12T22:12:49.382Z,2.38
2022-09-12T22:15:39.536Z,2.38
2022-09-12T22:18:07.578Z,2.30
2022-09-12T22:20:35.735Z,1.83
2022-09-12T22:23:24.795Z,2.45
2022-09-12T22:26:11.875Z,2.15
2022-09-12T22:28:41.464Z,2.38
2022-09-12T22:31:13.819Z,2.22
2022-09-12T22:33:42.205Z,1.63
2022-09-12T22:36:10.922Z,1.55
2022-09-12T22:38:40.464Z,1.88
2022-09-12T22:41:12.056Z,1.83
2022-09-12T22:46:10.641Z,1.50
2022-09-12T22:48:39.356Z,1.38
2022-09-12T22:51:26.739Z,4.85
2022-09-12T22:53:55.706Z,1.55
2022-09-12T22:56:24.032Z,2.42
2022-09-12T22:58:52.256Z,2.10
2022-09-12T23:01:20.532Z,2.83
2022-09-12T23:03:48.822Z,1.88
2022-09-12T23:06:17.864Z,2.30
2022-09-12T23:08:46.194Z,2.10
2022-09-12T23:11:17.036Z,3.03
2022-09-12T23:13:47.360Z,3.55
2022-09-12T23:16:26.035Z,3.45
2022-09-12T23:18:54.546Z,4.05
2022-09-12T23:21:22.909Z,4.18
2022-09-12T23:23:51.402Z,4.28
2022-09-12T23:26:22.572Z,3.00
2022-09-12T23:29:01.873Z,3.65
2022-09-12T23:31:32.089Z,3.03
2022-09-12T23:34:02.773Z,3.35
2022-09-12T23:36:31.449Z,3.20
2022-09-12T23:38:59.649Z,2.40
2022-09-12T23:41:46.476Z,3.10
2022-09-12T23:44:14.507Z,3.90
2022-09-12T23:46:42.601Z,2.63
2022-09-12T23:49:10.747Z,3.10
2022-09-12T23:51:38.819Z,3.25
2022-09-12T23:56:53.058Z,2.90
2022-09-12T23:59:21.303Z,2.63
